Time;durP1;ratioP1;P1;durP2;ratioP2;P2;SDS_P1;SDS_P2;PMS_P1;PMS_P2;Temp;Humidity;BMP_temperature;BMP_pressure;BME280_temperature;BME280_humidity;BME280_pressure;Samples;Min_cycle;Max_cycle;Signal;HPM_P1;HPM_P2
2020/12/10 00:00:07;;;;;;;52.10;21.83;;;;;;;2.23;84.38;100270.84;5039173;28;20239;-68
2020/12/10 00:02:34;;;;;;;54.73;23.03;;;;;;;2.21;83.73;100267.41;5034201;28;20683;-67
2020/12/10 00:05:00;;;;;;;53.30;22.57;;;;;;;2.22;84.36;100269.13;5049700;28;20201;-67
2020/12/10 00:07:27;;;;;;;52.53;22.63;;;;;;;2.20;84.19;100263.94;5051197;28;20694;-68
2020/12/10 00:09:54;;;;;;;53.63;22.90;;;;;;;2.20;83.83;100266.56;5053932;28;20205;-67
2020/12/10 00:12:21;;;;;;;50.83;21.63;;;;;;;2.19;83.97;100258.72;5053454;28;20232;-68
2020/12/10 00:14:53;;;;;;;51.37;23.13;;;;;;;2.19;83.95;100254.34;5053039;28;20212;-67
2020/12/10 00:17:23;;;;;;;56.93;22.63;;;;;;;2.20;83.90;100265.69;5054074;28;20202;-67
2020/12/10 00:19:50;;;;;;;58.47;23.03;;;;;;;2.18;84.73;100259.63;5053615;28;20217;-67
2020/12/10 00:22:16;;;;;;;51.53;23.23;;;;;;;2.17;83.84;100260.53;5053316;28;20205;-67
2020/12/10 00:24:43;;;;;;;56.03;23.87;;;;;;;2.18;84.25;100262.25;5053485;28;20213;-67
2020/12/10 00:27:09;;;;;;;53.33;22.93;;;;;;;2.17;84.61;100253.53;5054184;28;20236;-67
2020/12/10 00:29:35;;;;;;;57.97;23.23;;;;;;;2.18;84.03;100255.25;5053707;28;20658;-67
2020/12/10 00:32:01;;;;;;;57.63;23.07;;;;;;;2.18;84.27;100242.09;5052479;28;20518;-67
2020/12/10 00:34:28;;;;;;;54.63;22.40;;;;;;;2.18;84.70;100251.75;5054248;28;20209;-66
2020/12/10 00:36:56;;;;;;;54.07;23.13;;;;;;;2.16;84.65;100248.31;5053166;28;20602;-67
2020/12/10 00:39:23;;;;;;;56.17;23.60;;;;;;;2.15;84.47;100246.63;5053685;28;20229;-66
2020/12/10 00:41:53;;;;;;;54.07;22.73;;;;;;;2.15;84.54;100236.13;5051770;28;20205;-67
2020/12/10 00:44:19;;;;;;;49.27;21.93;;;;;;;2.15;84.18;100233.50;5053031;28;20284;-68
2020/12/10 00:46:45;;;;;;;55.07;23.30;;;;;;;2.14;84.35;100235.28;5053107;28;20303;-68
2020/12/10 00:49:11;;;;;;;54.03;22.23;;;;;;;2.13;84.94;100228.31;5051347;28;20249;-67
2020/12/10 00:51:38;;;;;;;57.57;23.63;;;;;;;2.14;84.24;100231.78;5049436;28;20244;-67
2020/12/10 00:54:05;;;;;;;55.43;23.70;;;;;;;2.14;84.62;100223.91;5053856;28;20236;-68
2020/12/10 00:56:34;;;;;;;48.53;21.93;;;;;;;2.12;84.25;100228.34;5050442;28;20210;-67
2020/12/10 00:59:00;;;;;;;56.90;22.77;;;;;;;2.08;84.27;100231.06;5053048;28;20275;-66
2020/12/10 01:01:27;;;;;;;50.77;22.70;;;;;;;2.06;84.26;100232.03;5050499;28;20237;-68
2020/12/10 01:03:53;;;;;;;57.03;23.00;;;;;;;2.03;84.17;100224.25;5052774;28;20217;-69
2020/12/10 01:06:19;;;;;;;58.67;23.73;;;;;;;2.03;84.27;100233.00;5052812;28;20271;-68
2020/12/10 01:08:45;;;;;;;58.17;23.00;;;;;;;2.01;84.26;100232.19;5054422;28;20268;-68
2020/12/10 01:11:12;;;;;;;60.30;23.23;;;;;;;2.01;84.42;100234.81;5051870;28;20210;-67
2020/12/10 01:13:39;;;;;;;56.10;23.10;;;;;;;2.00;84.44;100233.09;5052187;28;20267;-68
2020/12/10 01:16:05;;;;;;;55.37;23.00;;;;;;;2.00;84.26;100229.63;5050712;28;20209;-68
2020/12/10 01:18:31;;;;;;;54.87;24.10;;;;;;;1.97;84.83;100230.56;5047790;28;20630;-67
2020/12/10 01:20:57;;;;;;;58.43;23.97;;;;;;;1.97;84.87;100235.84;5053221;28;20651;-67
2020/12/10 01:23:23;;;;;;;56.93;23.07;;;;;;;1.97;84.70;100227.13;5051507;28;20205;-67
2020/12/10 01:25:49;;;;;;;57.63;23.47;;;;;;;1.96;84.28;100223.63;5052680;28;20206;-68
2020/12/10 01:28:16;;;;;;;54.93;22.50;;;;;;;1.95;84.47;100224.56;5052598;28;20229;-68
2020/12/10 01:30:43;;;;;;;56.90;22.90;;;;;;;1.95;84.67;100223.69;5052364;28;20296;-69
2020/12/10 01:33:09;;;;;;;55.63;23.13;;;;;;;1.95;84.45;100218.44;5052101;28;20241;-68
2020/12/10 01:35:35;;;;;;;61.93;23.17;;;;;;;1.96;84.90;100214.91;5052539;28;20233;-67
2020/12/10 01:38:01;;;;;;;54.47;22.90;;;;;;;1.97;84.48;100222.69;5053414;28;20221;-67
2020/12/10 01:40:27;;;;;;;58.63;23.30;;;;;;;1.98;84.64;100207.81;5052756;28;20209;-67
2020/12/10 01:42:53;;;;;;;55.63;23.60;;;;;;;1.97;84.94;100212.19;5051716;28;20239;-67
2020/12/10 01:45:21;;;;;;;54.60;21.87;;;;;;;1.96;84.45;100212.28;5051075;28;20210;-67
2020/12/10 01:47:47;;;;;;;56.13;22.20;;;;;;;1.95;84.71;100205.31;5052464;28;20229;-68
2020/12/10 01:50:13;;;;;;;54.00;22.57;;;;;;;1.96;84.31;100204.41;5052267;28;20241;-68
2020/12/10 01:52:39;;;;;;;53.97;22.10;;;;;;;1.97;84.76;100212.19;5050594;28;20241;-68
2020/12/10 01:55:05;;;;;;;55.07;22.40;;;;;;;1.97;84.67;100206.94;5051682;28;20260;-67
2020/12/10 01:57:31;;;;;;;56.80;23.50;;;;;;;1.99;84.93;100209.53;5051552;28;20253;-68
2020/12/10 01:59:57;;;;;;;54.93;21.97;;;;;;;1.98;84.37;100203.41;5051319;28;20209;-67
2020/12/10 02:02:24;;;;;;;60.40;22.97;;;;;;;1.98;84.89;100200.78;5050608;28;20197;-68
2020/12/10 02:04:51;;;;;;;57.23;22.40;;;;;;;1.98;85.14;100194.66;5051110;28;20248;-68
2020/12/10 02:07:17;;;;;;;54.20;22.87;;;;;;;1.98;84.62;100195.53;5051305;28;20736;-68
2020/12/10 02:09:43;;;;;;;54.30;23.40;;;;;;;1.99;84.49;100185.88;5051025;28;20237;-67
2020/12/10 02:12:09;;;;;;;57.10;25.13;;;;;;;1.99;84.92;100189.38;5051289;28;20201;-68
2020/12/10 02:14:37;;;;;;;57.60;22.97;;;;;;;1.99;85.04;100181.50;5051029;28;20292;-68
2020/12/10 02:17:05;;;;;;;58.30;24.43;;;;;;;1.98;84.25;100171.91;5050851;28;20243;-68
2020/12/10 02:19:33;;;;;;;57.90;25.27;;;;;;;1.99;84.59;100178.84;5052396;28;20241;-67
2020/12/10 02:21:59;;;;;;;59.53;23.90;;;;;;;1.98;84.82;100179.78;5051390;28;20217;-68
2020/12/10 02:24:26;;;;;;;61.90;24.10;;;;;;;1.95;84.82;100174.66;5052002;28;20201;-67
2020/12/10 02:26:52;;;;;;;59.30;24.53;;;;;;;1.94;84.83;100164.19;5050862;28;20210;-67
2020/12/10 02:29:19;;;;;;;64.43;24.47;;;;;;;1.92;84.89;100164.25;5050832;28;20231;-67
2020/12/10 02:31:46;;;;;;;61.67;24.70;;;;;;;1.92;84.41;100169.50;5050339;28;20205;-67
2020/12/10 02:34:13;;;;;;;57.87;24.83;;;;;;;1.91;84.45;100169.56;5045045;28;20654;-67
2020/12/10 02:36:40;;;;;;;62.63;23.53;;;;;;;1.90;84.85;100167.84;5051395;28;20233;-67
2020/12/10 02:39:08;;;;;;;58.77;23.97;;;;;;;1.90;84.70;100167.84;5051424;28;20253;-68
2020/12/10 02:41:36;;;;;;;57.13;23.90;;;;;;;1.89;84.38;100168.75;5050889;28;20205;-69
2020/12/10 02:44:03;;;;;;;68.50;26.30;;;;;;;1.88;84.40;100154.75;5050811;28;20211;-68
2020/12/10 02:46:29;;;;;;;56.70;23.57;;;;;;;1.87;84.59;100163.56;5050950;28;20252;-68
2020/12/10 02:48:56;;;;;;;67.83;25.47;;;;;;;1.88;84.92;100165.28;5050515;28;20264;-67
2020/12/10 02:51:22;;;;;;;63.70;25.17;;;;;;;1.87;84.56;100158.31;5051548;28;20346;-67
2020/12/10 02:53:48;;;;;;;63.50;25.67;;;;;;;1.89;84.48;100153.00;5050843;28;20581;-67
2020/12/10 02:56:16;;;;;;;67.73;24.97;;;;;;;1.90;84.85;100152.09;5052031;28;20201;-67
2020/12/10 02:58:43;;;;;;;57.43;24.50;;;;;;;1.90;84.81;100147.69;5050576;28;20225;-68
2020/12/10 03:01:10;;;;;;;59.20;24.20;;;;;;;1.91;84.46;100146.78;5038310;28;20701;-65
2020/12/10 03:03:37;;;;;;;60.87;26.10;;;;;;;1.90;85.01;100134.56;5051288;28;20612;-67
2020/12/10 03:06:04;;;;;;;64.00;23.77;;;;;;;1.90;84.56;100139.81;5050778;28;20205;-66
2020/12/10 03:08:30;;;;;;;61.43;24.23;;;;;;;1.90;84.76;100126.69;5051434;28;20698;-67
2020/12/10 03:10:56;;;;;;;73.53;25.90;;;;;;;1.90;85.03;100126.69;5049518;28;20608;-66
2020/12/10 03:13:22;;;;;;;64.97;24.57;;;;;;;1.89;84.97;100121.47;5049862;28;20256;-67
2020/12/10 03:15:49;;;;;;;64.90;25.57;;;;;;;1.90;84.57;100126.69;5051057;28;20315;-67
2020/12/10 03:18:16;;;;;;;66.20;26.20;;;;;;;1.91;85.31;100122.28;5036027;28;20636;-67
2020/12/10 03:20:42;;;;;;;69.40;25.13;;;;;;;1.92;85.20;100124.00;5051304;28;20201;-65
2020/12/10 03:23:08;;;;;;;67.53;27.10;;;;;;;1.91;84.50;100120.53;5045253;28;20641;-65
2020/12/10 03:25:34;;;;;;;68.07;24.27;;;;;;;1.92;85.33;100116.13;5050733;28;20693;-65
2020/12/10 03:28:00;;;;;;;63.63;24.83;;;;;;;1.91;84.79;100117.91;5049598;28;20721;-67
2020/12/10 03:30:27;;;;;;;66.70;26.10;;;;;;;1.93;84.77;100123.94;5049247;28;20766;-66
2020/12/10 03:32:54;;;;;;;64.07;23.67;;;;;;;1.95;85.35;100118.66;5049945;28;20689;-68
2020/12/10 03:35:20;;;;;;;66.13;24.43;;;;;;;1.94;84.72;100109.91;5045885;28;20588;-67
2020/12/10 03:37:46;;;;;;;65.67;25.30;;;;;;;1.94;84.80;100107.28;5050368;28;20578;-67
2020/12/10 03:40:12;;;;;;;65.27;25.17;;;;;;;1.93;85.22;100100.31;5049710;28;20638;-67
2020/12/10 03:42:38;;;;;;;61.47;26.23;;;;;;;1.92;84.74;100109.09;5050322;28;20731;-68
2020/12/10 03:45:05;;;;;;;60.60;24.20;;;;;;;1.92;84.71;100106.47;5047651;28;21659;-67
2020/12/10 03:47:31;;;;;;;68.23;24.77;;;;;;;1.91;84.62;100102.16;5050444;28;20599;-67
2020/12/10 03:49:58;;;;;;;61.60;24.93;;;;;;;1.90;84.68;100095.19;5046810;28;20590;-66
2020/12/10 03:52:24;;;;;;;62.13;24.17;;;;;;;1.92;85.08;100103.00;5049199;28;20554;-67
2020/12/10 03:54:50;;;;;;;68.47;24.83;;;;;;;1.93;84.86;100105.56;5051319;28;20694;-66
2020/12/10 03:57:17;;;;;;;71.40;25.37;;;;;;;1.94;84.91;100095.94;5049929;28;20205;-67
2020/12/10 03:59:43;;;;;;;74.30;26.13;;;;;;;1.93;85.06;100094.22;5050089;28;20695;-66
2020/12/10 04:02:09;;;;;;;69.87;25.57;;;;;;;1.92;85.23;100095.97;5048883;28;20624;-66
2020/12/10 04:04:35;;;;;;;69.57;25.97;;;;;;;1.94;85.48;100096.78;5051350;28;20206;-65
2020/12/10 04:07:02;;;;;;;67.40;25.90;;;;;;;1.93;84.84;100092.44;5050042;28;20561;-67
2020/12/10 04:09:28;;;;;;;61.17;24.43;;;;;;;1.94;84.87;100096.78;5038408;28;20225;-67
2020/12/10 04:11:54;;;;;;;63.50;23.53;;;;;;;1.94;85.50;100101.19;5047918;28;20459;-68
2020/12/10 04:14:20;;;;;;;68.83;26.47;;;;;;;1.94;85.24;100096.78;5049823;28;20220;-68
2020/12/10 04:16:47;;;;;;;59.33;24.50;;;;;;;1.94;85.54;100101.19;5051238;28;20292;-68
2020/12/10 04:19:13;;;;;;;75.00;23.80;;;;;;;1.95;84.96;100101.13;5049300;28;20957;-68
2020/12/10 04:21:39;;;;;;;72.47;26.47;;;;;;;1.95;84.90;100103.75;5043204;28;20632;-67
2020/12/10 04:24:06;;;;;;;61.63;23.90;;;;;;;1.97;84.85;100103.69;5039628;28;20229;-67
2020/12/10 04:26:32;;;;;;;64.60;25.13;;;;;;;1.97;85.53;100107.16;5042998;28;21987;-67
2020/12/10 04:28:58;;;;;;;62.90;24.50;;;;;;;1.96;85.33;100099.34;5042532;28;20600;-67
2020/12/10 04:31:24;;;;;;;62.47;24.47;;;;;;;1.94;85.39;100099.41;5049279;28;20208;-68
2020/12/10 04:33:51;;;;;;;64.17;23.53;;;;;;;1.92;85.48;100101.22;5049451;28;20264;-67
2020/12/10 04:36:17;;;;;;;69.50;26.63;;;;;;;1.91;85.01;100098.66;5049866;28;20285;-66
2020/12/10 04:38:43;;;;;;;67.33;25.77;;;;;;;1.92;85.79;100098.59;5049098;28;20307;-68
2020/12/10 04:41:10;;;;;;;65.47;25.23;;;;;;;1.93;85.50;100100.31;5049942;28;20798;-67
2020/12/10 04:43:36;;;;;;;73.37;26.63;;;;;;;1.94;85.11;100104.66;5048544;28;20201;-67
2020/12/10 04:46:04;;;;;;;74.57;24.83;;;;;;;1.93;84.90;100105.56;5049872;28;20271;-67
2020/12/10 04:48:32;;;;;;;64.13;24.87;;;;;;;1.96;85.14;100107.22;5049471;28;20226;-66
2020/12/10 04:51:02;;;;;;;78.63;26.93;;;;;;;1.97;85.07;100107.16;5050363;28;20213;-67
2020/12/10 04:53:29;;;;;;;64.43;25.47;;;;;;;1.99;85.26;100109.72;5049775;28;20592;-67
2020/12/10 04:55:58;;;;;;;67.73;25.93;;;;;;;1.99;85.48;100114.97;5054284;28;20205;-68
2020/12/10 04:58:25;;;;;;;73.10;26.43;;;;;;;2.01;85.88;100115.78;5048673;28;20305;-65
2020/12/10 05:00:56;;;;;;;67.57;24.53;;;;;;;2.01;85.24;100111.38;5049107;28;20238;-67
2020/12/10 05:03:22;;;;;;;63.20;24.27;;;;;;;2.03;85.44;100112.19;5046946;28;20206;-65
2020/12/10 05:05:49;;;;;;;69.20;25.67;;;;;;;2.04;85.73;100113.03;5050192;28;20235;-66
2020/12/10 05:08:15;;;;;;;65.37;24.73;;;;;;;2.03;85.12;100112.19;5048644;28;20225;-65
2020/12/10 05:10:45;;;;;;;74.40;25.07;;;;;;;2.01;85.14;100108.75;5050169;28;20297;-65
2020/12/10 05:13:13;;;;;;;72.63;25.23;;;;;;;2.00;85.42;100100.94;5050968;28;20241;-66
2020/12/10 05:15:41;;;;;;;71.10;25.73;;;;;;;1.99;85.34;100107.09;5049312;28;20304;-67
2020/12/10 05:18:08;;;;;;;70.43;24.97;;;;;;;1.98;85.77;100108.88;5051090;28;20328;-66
2020/12/10 05:20:39;;;;;;;70.70;25.30;;;;;;;1.98;85.82;100108.88;5051832;28;20295;-66
2020/12/10 05:23:07;;;;;;;76.93;25.90;;;;;;;1.98;85.38;100105.38;5049992;28;20224;-67
2020/12/10 05:25:48;;;;;;;77.93;28.07;;;;;;;1.98;85.98;100103.59;5050710;28;20585;-67
2020/12/10 05:28:14;;;;;;;79.60;26.70;;;;;;;1.99;85.24;100109.72;5045980;28;20226;-67
2020/12/10 05:30:43;;;;;;;81.73;26.97;;;;;;;1.99;85.53;100097.44;5039540;28;20205;-68
2020/12/10 05:33:11;;;;;;;83.53;26.37;;;;;;;2.01;85.95;100102.66;5039818;28;20206;-66
2020/12/10 05:35:38;;;;;;;92.30;27.57;;;;;;;2.00;85.72;100103.56;5042746;28;20209;-65
2020/12/10 05:38:11;;;;;;;97.07;28.50;;;;;;;2.00;85.71;100107.03;5042000;28;20226;-66
2020/12/10 05:40:38;;;;;;;83.20;27.83;;;;;;;1.99;85.36;100094.81;5041175;28;20309;-66
2020/12/10 05:43:05;;;;;;;92.80;27.77;;;;;;;1.99;85.58;100102.69;5035478;28;20202;-67
2020/12/10 05:45:37;;;;;;;102.90;28.17;;;;;;;1.99;85.55;100100.06;5041702;28;20292;-66
2020/12/10 05:48:04;;;;;;;86.93;27.80;;;;;;;1.98;85.42;100090.47;5039224;28;20225;-66
2020/12/10 05:50:32;;;;;;;155.33;30.27;;;;;;;1.97;85.29;100099.28;5041345;28;20364;-67
2020/12/10 05:53:07;;;;;;;103.57;28.80;;;;;;;1.96;85.76;100101.97;5043417;28;20284;-67
2020/12/10 05:55:35;;;;;;;129.60;29.83;;;;;;;1.96;85.95;100104.59;5057069;28;20205;-66
2020/12/10 05:58:03;;;;;;;110.63;32.60;;;;;;;1.96;85.76;100096.72;5048042;28;20224;-66
2020/12/10 06:00:29;;;;;;;118.50;32.40;;;;;;;1.98;85.53;100100.13;5042173;28;20206;-67
2020/12/10 06:02:56;;;;;;;197.93;36.00;;;;;;;1.98;85.76;100095.72;5047180;28;20202;-67
2020/12/10 06:05:24;;;;;;;240.87;36.60;;;;;;;2.00;86.15;100093.06;5040355;28;20257;-66
2020/12/10 06:08:01;;;;;;;123.50;32.17;;;;;;;1.97;86.01;100094.00;5034451;28;20226;-66
2020/12/10 06:10:27;;;;;;;116.37;31.10;;;;;;;1.98;86.09;100100.97;5033375;28;20285;-66
2020/12/10 06:12:54;;;;;;;117.00;30.10;;;;;;;1.99;86.47;100104.47;5045284;28;20241;-66
2020/12/10 06:15:25;;;;;;;104.23;29.70;;;;;;;1.97;85.71;100101.91;5051618;28;20229;-66
2020/12/10 06:18:08;;;;;;;107.27;29.73;;;;;;;1.97;85.75;100099.28;5043553;28;20225;-66
2020/12/10 06:20:36;;;;;;;154.03;31.43;;;;;;;1.97;85.93;100091.38;5046627;28;20293;-66
2020/12/10 06:23:40;;;;;;;93.67;26.90;;;;;;;1.97;86.04;100101.91;5043336;28;20220;-66
2020/12/10 06:26:37;;;;;;;119.30;29.87;;;;;;;1.95;86.77;100093.25;5052248;28;20256;-66
2020/12/10 06:29:24;;;;;;;102.93;30.10;;;;;;;1.95;86.06;100095.00;5044486;28;20237;-66
2020/12/10 06:32:08;;;;;;;107.20;29.50;;;;;;;1.95;86.63;100095.88;5048388;28;20292;-66
2020/12/10 06:34:41;;;;;;;99.50;28.40;;;;;;;1.95;86.50;100090.63;5062570;28;20719;-66
2020/12/10 06:37:17;;;;;;;109.70;30.23;;;;;;;1.97;86.79;100091.38;5046838;28;20328;-66
2020/12/10 06:39:43;;;;;;;98.60;28.57;;;;;;;1.97;86.36;100098.44;5051287;28;20284;-66
2020/12/10 06:42:09;;;;;;;106.53;30.33;;;;;;;1.98;86.64;100100.13;5046467;28;20212;-66
2020/12/10 06:44:36;;;;;;;108.80;30.30;;;;;;;1.99;86.95;100097.44;5052238;28;20229;-64
2020/12/10 06:47:03;;;;;;;104.00;28.67;;;;;;;2.01;86.73;100100.03;5045861;28;20670;-64
2020/12/10 06:49:30;;;;;;;110.67;30.00;;;;;;;2.03;86.55;100101.69;5051813;28;20244;-66
2020/12/10 06:52:08;;;;;;;101.10;29.50;;;;;;;2.02;87.12;100094.72;5051669;28;20208;-67
2020/12/10 06:54:35;;;;;;;185.43;34.43;;;;;;;2.04;87.09;100097.28;5052428;28;20208;-66
2020/12/10 06:57:03;;;;;;;120.03;30.97;;;;;;;2.04;87.33;100102.53;5051474;28;20201;-67
2020/12/10 06:59:37;;;;;;;110.13;29.33;;;;;;;2.04;86.94;100086.78;5051677;28;20712;-66
2020/12/10 07:02:11;;;;;;;128.10;29.97;;;;;;;2.05;87.00;100099.84;5051502;28;20223;-66
2020/12/10 07:04:46;;;;;;;102.87;29.40;;;;;;;2.03;87.12;100091.16;5044768;28;20724;-67
2020/12/10 07:07:15;;;;;;;138.60;31.00;;;;;;;2.02;86.94;100080.72;5048729;28;20260;-67
2020/12/10 07:09:53;;;;;;;102.07;28.93;;;;;;;2.01;86.58;100095.63;5039162;28;20285;-65
2020/12/10 07:12:21;;;;;;;121.23;29.70;;;;;;;2.00;86.54;100100.94;5032823;28;20217;-66
2020/12/10 07:14:48;;;;;;;132.73;31.20;;;;;;;1.99;86.85;100096.59;5033423;28;20213;-67
2020/12/10 07:17:14;;;;;;;150.10;32.03;;;;;;;1.98;86.86;100111.50;5061963;22;20229;-67
2020/12/10 07:19:40;;;;;;;127.33;33.53;;;;;;;1.99;87.28;100118.47;5069227;28;20197;-67
2020/12/10 07:22:06;;;;;;;112.83;30.73;;;;;;;2.00;86.94;100112.28;5060751;28;20197;-69
2020/12/10 07:24:32;;;;;;;112.60;30.17;;;;;;;2.01;86.88;100116.63;5068530;28;20201;-69
2020/12/10 07:26:59;;;;;;;111.87;33.13;;;;;;;2.00;87.48;100117.53;5059666;28;20225;-69
2020/12/10 07:29:25;;;;;;;175.80;34.63;;;;;;;2.01;87.71;100113.16;5051043;28;20244;-69
2020/12/10 07:31:52;;;;;;;111.63;31.53;;;;;;;2.02;87.82;100110.47;5050488;28;20550;-69
2020/12/10 07:34:18;;;;;;;162.20;33.97;;;;;;;2.03;87.55;100113.97;5051476;28;20549;-69
2020/12/10 07:36:48;;;;;;;103.27;31.13;;;;;;;2.05;87.15;100109.50;5050472;28;20221;-69
2020/12/10 07:39:26;;;;;;;147.87;32.63;;;;;;;2.05;87.68;100107.72;5051040;28;20205;-69
2020/12/10 07:41:52;;;;;;;144.33;32.10;;;;;;;2.05;87.80;100110.38;5048582;28;20201;-68
2020/12/10 07:44:26;;;;;;;138.10;32.43;;;;;;;2.04;86.95;100103.41;5042062;28;20674;-68
2020/12/10 07:46:52;;;;;;;131.50;32.20;;;;;;;2.04;87.65;100108.66;5044607;28;20225;-69
2020/12/10 07:49:27;;;;;;;114.47;32.37;;;;;;;2.05;87.17;100113.00;5050899;28;20221;-69
2020/12/10 07:52:04;;;;;;;146.93;33.57;;;;;;;2.07;87.20;100108.53;5050459;28;20304;-69
2020/12/10 07:54:44;;;;;;;139.90;33.10;;;;;;;2.08;87.34;100109.41;5050866;28;20209;-69
2020/12/10 07:57:21;;;;;;;118.90;32.70;;;;;;;2.08;87.73;100105.00;5040374;28;20228;-69
2020/12/10 07:59:56;;;;;;;117.30;31.87;;;;;;;2.09;87.31;100106.72;5050381;28;20216;-68
2020/12/10 08:02:39;;;;;;;131.80;32.23;;;;;;;2.11;88.00;100103.19;5042881;28;20214;-69
2020/12/10 08:05:12;;;;;;;143.97;33.13;;;;;;;2.12;88.20;100099.63;5047994;28;20198;-70
2020/12/10 08:07:39;;;;;;;103.30;29.33;;;;;;;2.12;87.97;100095.25;5051109;28;20227;-69
2020/12/10 08:10:05;;;;;;;118.33;30.50;;;;;;;2.13;87.48;100101.34;5039777;28;20206;-69
2020/12/10 08:12:31;;;;;;;107.10;31.77;;;;;;;2.15;87.85;100110.03;5046585;28;20205;-68
2020/12/10 08:14:58;;;;;;;125.67;31.00;;;;;;;2.15;87.71;100100.34;5050899;28;20205;-69
2020/12/10 08:17:26;;;;;;;123.93;32.50;;;;;;;2.15;88.09;100104.78;5049733;28;20252;-69
2020/12/10 08:19:57;;;;;;;109.37;30.30;;;;;;;2.16;87.43;100106.47;5050952;28;20581;-69
2020/12/10 08:22:24;;;;;;;110.60;31.57;;;;;;;2.17;87.37;100101.16;5050516;28;20216;-69
2020/12/10 08:24:50;;;;;;;114.87;32.73;;;;;;;2.18;88.14;100104.63;5051348;28;20213;-69
2020/12/10 08:27:18;;;;;;;99.33;27.87;;;;;;;2.19;87.60;100104.59;5038054;28;20233;-69
2020/12/10 08:29:59;;;;;;;111.97;31.23;;;;;;;2.20;88.26;100097.56;5052162;28;20279;-69
2020/12/10 08:32:25;;;;;;;123.93;29.93;;;;;;;2.20;88.21;100095.78;5054358;28;20239;-69
2020/12/10 08:35:01;;;;;;;109.47;30.37;;;;;;;2.21;87.35;100094.88;5054346;28;20208;-68
2020/12/10 08:37:36;;;;;;;118.73;30.67;;;;;;;2.22;88.02;100096.59;5054393;28;20229;-69
2020/12/10 08:40:03;;;;;;;146.80;32.43;;;;;;;2.21;87.95;100104.53;5053377;28;20428;-69
2020/12/10 08:42:29;;;;;;;114.10;30.87;;;;;;;2.21;87.75;100104.53;5053622;28;20208;-69
2020/12/10 08:44:55;;;;;;;107.67;30.97;;;;;;;2.21;88.01;100100.13;5052828;28;20202;-69
2020/12/10 08:47:26;;;;;;;112.33;29.13;;;;;;;2.20;88.17;100101.03;5054373;28;20227;-69
2020/12/10 08:50:21;;;;;;;108.70;30.63;;;;;;;2.21;88.20;100104.53;5053641;28;20221;-69
2020/12/10 08:52:48;;;;;;;121.37;31.67;;;;;;;2.21;88.48;100102.75;5053254;28;20704;-69
2020/12/10 08:55:14;;;;;;;136.67;32.03;;;;;;;2.23;87.66;100102.69;5053473;28;20212;-69
2020/12/10 08:57:47;;;;;;;128.23;32.37;;;;;;;2.25;88.25;100103.50;5054532;28;20225;-69
2020/12/10 09:00:13;;;;;;;161.27;33.67;;;;;;;2.26;88.41;100102.59;5053525;28;20206;-69
2020/12/10 09:02:40;;;;;;;168.97;32.80;;;;;;;2.26;88.41;100103.44;5053141;28;20205;-69
2020/12/10 09:05:06;;;;;;;143.37;32.57;;;;;;;2.28;88.58;100099.00;5053370;28;20198;-69
2020/12/10 09:07:32;;;;;;;140.83;32.93;;;;;;;2.28;87.73;100100.78;5053691;28;20225;-69
2020/12/10 09:10:01;;;;;;;185.67;36.83;;;;;;;2.28;88.73;100104.25;5044837;28;20214;-69
2020/12/10 09:12:27;;;;;;;133.17;32.70;;;;;;;2.30;88.17;100109.44;5052596;28;20611;-69
2020/12/10 09:14:53;;;;;;;139.27;32.67;;;;;;;2.30;88.71;100110.31;5053941;28;20310;-69
2020/12/10 09:17:19;;;;;;;206.10;37.37;;;;;;;2.32;87.78;100105.84;5052996;28;20701;-69
2020/12/10 09:19:46;;;;;;;167.17;34.73;;;;;;;2.34;87.97;100100.50;5053600;28;20204;-69
2020/12/10 09:22:12;;;;;;;293.17;42.23;;;;;;;2.35;88.67;100102.22;5052353;28;20206;-70
2020/12/10 09:24:38;;;;;;;222.80;39.30;;;;;;;2.37;87.99;100108.28;5053745;28;20202;-69
2020/12/10 09:27:07;;;;;;;143.27;35.43;;;;;;;2.38;88.82;100097.72;5053464;28;20226;-69
2020/12/10 09:29:33;;;;;;;135.43;34.40;;;;;;;2.40;88.19;100095.03;5053255;28;20307;-69
2020/12/10 09:32:00;;;;;;;148.63;34.90;;;;;;;2.42;88.21;100098.47;5052938;28;20206;-69
2020/12/10 09:34:26;;;;;;;207.43;38.97;;;;;;;2.43;88.60;100094.91;5052827;28;20641;-69
2020/12/10 09:36:53;;;;;;;129.73;35.33;;;;;;;2.44;88.46;100094.00;5053550;28;20247;-69
2020/12/10 09:39:19;;;;;;;133.20;34.83;;;;;;;2.44;88.59;100084.34;5052703;28;20559;-69
2020/12/10 09:41:45;;;;;;;137.17;35.17;;;;;;;2.44;88.25;100080.84;5051603;28;20216;-69
2020/12/10 09:44:11;;;;;;;137.63;34.10;;;;;;;2.45;88.11;100077.31;5053768;28;20676;-71
2020/12/10 09:46:37;;;;;;;180.60;36.33;;;;;;;2.47;88.36;100079.88;5043635;28;20223;-69
2020/12/10 09:49:03;;;;;;;187.43;37.03;;;;;;;2.49;89.12;100073.66;5053697;28;20320;-69
2020/12/10 09:51:36;;;;;;;161.13;36.00;;;;;;;2.52;88.46;100076.16;5052936;28;20670;-69
2020/12/10 09:54:07;;;;;;;126.80;35.23;;;;;;;2.55;88.93;100077.78;5053778;28;20202;-69
2020/12/10 09:56:45;;;;;;;113.13;35.43;;;;;;;2.57;88.69;100074.19;5052547;28;20668;-69
2020/12/10 09:59:14;;;;;;;118.17;33.30;;;;;;;2.59;89.28;100080.25;5053336;28;20201;-69
2020/12/10 10:01:44;;;;;;;106.30;32.60;;;;;;;2.63;88.84;100070.47;5049463;28;20208;-69
2020/12/10 10:04:11;;;;;;;109.67;32.60;;;;;;;2.65;88.80;100074.75;5044169;28;20657;-69
2020/12/10 10:06:37;;;;;;;117.93;33.93;;;;;;;2.69;89.24;100076.31;5052209;28;20248;-69
2020/12/10 10:09:05;;;;;;;97.70;32.13;;;;;;;2.70;88.59;100069.28;5049245;28;20225;-68
2020/12/10 10:11:31;;;;;;;102.57;31.97;;;;;;;2.72;88.92;100064.84;5052297;28;20208;-69
2020/12/10 10:13:57;;;;;;;108.10;31.77;;;;;;;2.73;88.66;100066.53;5051622;28;20208;-69
2020/12/10 10:16:27;;;;;;;102.93;31.50;;;;;;;2.76;89.12;100059.41;5042523;28;20741;-68
2020/12/10 10:18:53;;;;;;;91.70;32.47;;;;;;;2.78;89.14;100059.34;5052062;28;20197;-69
2020/12/10 10:21:19;;;;;;;74.00;27.20;;;;;;;2.82;88.62;100053.03;5052578;28;20205;-69
2020/12/10 10:23:45;;;;;;;83.10;27.73;;;;;;;2.84;88.99;100064.34;5051429;28;20212;-69
2020/12/10 10:26:12;;;;;;;77.37;27.37;;;;;;;2.86;88.62;100056.41;5052813;28;20320;-69
2020/12/10 10:28:39;;;;;;;70.27;25.57;;;;;;;2.86;88.41;100056.41;5051970;28;20225;-69
2020/12/10 10:31:07;;;;;;;72.70;27.07;;;;;;;2.85;88.85;100055.56;5052264;28;20204;-69
2020/12/10 10:33:33;;;;;;;81.13;28.13;;;;;;;2.87;88.84;100058.09;5049185;28;20202;-69
2020/12/10 10:35:59;;;;;;;70.17;25.53;;;;;;;2.88;89.25;100063.28;5052868;28;20210;-68
2020/12/10 10:38:25;;;;;;;71.17;26.60;;;;;;;2.90;88.46;100052.69;5051551;28;20202;-69
2020/12/10 10:40:51;;;;;;;69.20;27.47;;;;;;;2.92;88.82;100051.72;5051338;28;20212;-69
2020/12/10 10:43:18;;;;;;;68.77;26.97;;;;;;;2.95;89.24;100043.72;5051747;28;20623;-69
2020/12/10 10:45:44;;;;;;;70.17;26.33;;;;;;;2.96;89.08;100045.44;5052082;28;20216;-69
2020/12/10 10:48:10;;;;;;;74.33;26.20;;;;;;;2.99;88.71;100047.06;5051909;28;20225;-69
2020/12/10 10:50:36;;;;;;;72.10;25.50;;;;;;;3.00;89.10;100040.91;5051747;28;20577;-69
2020/12/10 10:53:03;;;;;;;70.87;25.57;;;;;;;3.00;88.33;100040.91;5051166;28;20205;-69
2020/12/10 10:55:29;;;;;;;66.83;26.43;;;;;;;3.01;88.98;100034.72;5052601;28;20197;-69
2020/12/10 10:57:55;;;;;;;71.03;25.57;;;;;;;3.00;88.54;100036.50;5051015;28;20229;-68
2020/12/10 11:00:22;;;;;;;67.37;24.80;;;;;;;3.02;88.42;100032.03;5051730;28;20207;-69
2020/12/10 11:02:48;;;;;;;63.67;25.37;;;;;;;3.03;88.85;100028.47;5051163;28;20694;-69
2020/12/10 11:05:14;;;;;;;62.97;25.47;;;;;;;3.04;88.98;100031.97;5051587;28;20206;-68
2020/12/10 11:07:41;;;;;;;68.97;26.00;;;;;;;3.05;88.82;100028.38;5051366;28;20702;-69
2020/12/10 11:10:08;;;;;;;67.43;25.50;;;;;;;3.04;88.56;100034.59;5051290;28;20259;-69
2020/12/10 11:12:34;;;;;;;68.50;25.37;;;;;;;3.03;88.75;100035.50;5046933;28;20206;-69
2020/12/10 11:15:00;;;;;;;63.37;24.30;;;;;;;3.03;88.95;100033.75;5045081;28;20209;-69
2020/12/10 11:17:27;;;;;;;65.57;25.60;;;;;;;3.05;89.04;100031.00;5047981;28;20236;-69